Latest Coastal Weather Observations for Coffs Harbour Airport

IDN60701

Issued at 4:11 pm EST Tuesday 4 August 2020 (issued every 10 minutes, with the page automatically refreshed every 10 minutes)

About coastal observations | Map of coastal stations | Coastal observations for NSW | Marine services | Other Formats
Station Details ID: 059151 Name: COFFS HARBOUR AIRPORT Lat: -30.32 Lon: 153.12 Height: 3.5 m
Data from the previous 72 hours. | See also: Recent months at Coffs Harbour Airport
Date/Time
EST
Wind Sea
Height
m
Swell Vis
km
Cloud Weather Temp
°C
Press
hPa
Rain since
9am
mm
Dir  Spd
kts
Gust
kts
Height
m
Period
s
Dir
04/04:00pm NNE 10 14 - - - - 10 Clear - 20.8 1011.1 0.0
04/03:30pm NE 11 16 - - - - 10 - - 21.4 1011.0 0.0
04/03:00pm NE 12 16 - - - - 10 - - 21.8 1010.7 0.0
04/02:30pm NE 11 17 - - - - 10 - - 22.4 1010.7 0.0
04/02:00pm ENE 12 15 - - - - 10 - - 22.6 1010.8 0.0
04/01:30pm ENE 11 15 - - - - 10 - - 22.3 1011.0 0.0
04/01:00pm NE 9 14 - - - - 10 - - 22.4 1011.4 0.0
04/12:30pm N 7 9 - - - - 10 - - 22.3 1011.9 0.0
04/12:00pm NNE 8 14 - - - - 10 - - 22.0 1012.6 0.0
04/11:30am N 7 10 - - - - 10 - - 21.7 1013.5 0.0
04/11:00am NNW 7 10 - - - - 10 - - 21.8 1014.1 0.0
04/10:30am NNW 8 10 - - - - 10 - - 21.3 1014.8 0.0
04/10:00am NW 8 10 - - - - 10 - - 20.7 1015.3 0.0
04/09:30am NW 10 13 - - - - 10 - - 19.5 1015.7 0.0
04/09:00am NW 10 13 - - - - 10 - - 18.4 1015.7 0.0
04/08:30am NNW 6 7 - - - - 10 - - 16.3 1015.7 0.0
04/08:00am WNW 6 6 - - - - 10 - - 13.5 1015.8 0.0
04/07:30am WNW 5 5 - - - - 10 - - 10.7 1015.9 0.0
04/07:00am W 1 4 - - - - 10 - - 7.4 1015.9 0.0
04/06:30am W 3 4 - - - - 10 - - 7.4 1015.7 0.0
04/06:00am WSW 3 6 - - - - 10 - - 7.2 1015.7 0.0
04/05:30am CALM 0 0 - - - - 10 - - 7.6 1015.6 0.0
04/05:00am SW 2 6 - - - - 10 - - 8.7 1015.5 0.0
04/04:37am NNW 5 9 - - - - 10 - - 8.1 1015.5 0.0
04/04:30am N 6 7 - - - - 10 - - 8.1 1015.4 0.0
04/04:00am NW 1 4 - - - - 10 Partly cloudy - 8.6 1015.6 0.0
04/03:35am CALM 0 0 - - - - 6 Partly cloudy - 8.8 1015.8 0.0
04/03:30am CALM 0 0 - - - - 10 Partly cloudy - 9.8 1015.8 0.0
04/03:00am CALM 0 0 - - - - 10 Mostly clear - 9.1 1016.0 0.0
04/02:30am CALM 0 0 - - - - 10 Partly cloudy - 11.2 1016.2 0.0
04/02:00am WNW 1 4 - - - - 10 Partly cloudy - 12.2 1016.3 0.0
04/01:30am NNW 6 8 - - - - 10 Partly cloudy - 12.9 1016.3 0.0
04/01:00am NNW 7 9 - - - - 10 - - 14.4 1016.5 0.0
04/12:30am N 7 7 - - - - 10 - - 13.4 1016.7 0.0
04/12:00am NNW 9 10 - - - - 10 - - 15.2 1017.2 0.0
 
Date/Time
EST
Wind Sea
Height
m
Swell Vis
km
Cloud Weather Temp
°C
Press
hPa
Rain since
9am
mm
Dir  Spd
kts
Gust
kts
Height
m
Period
s
Dir
03/11:30pm NW 9 10 - - - - 10 Partly cloudy - 14.9 1017.4 0.0
03/11:00pm NW 11 14 - - - - 10 - - 15.6 1017.5 0.0
03/10:30pm NNW 11 14 - - - - 10 Partly cloudy - 16.2 1017.7 0.0
03/10:00pm NNW 9 10 - - - - 10 Partly cloudy - 16.5 1017.7 0.0
03/09:30pm NNW 7 10 - - - - 10 Cloudy - 16.4 1017.7 0.0
03/09:00pm NNW 8 11 - - - - 10 Partly cloudy - 16.7 1017.6 0.0
03/08:30pm NNW 8 10 - - - - 10 Partly cloudy - 16.2 1017.3 0.0
03/08:00pm NNW 8 10 - - - - 10 Partly cloudy - 16.7 1017.2 0.0
03/07:30pm N 7 9 - - - - 10 Partly cloudy - 16.3 1017.0 0.0
03/07:00pm NNW 6 7 - - - - 10 - - 16.0 1016.9 0.0
03/06:30pm N 6 7 - - - - 10 - - 15.7 1017.0 0.0
03/06:00pm N 9 10 - - - - 10 - - 17.3 1016.8 0.0
03/05:30pm N 10 14 - - - - 10 - - 18.1 1016.7 0.0
03/05:00pm NNE 12 17 - - - - 10 - - 18.7 1016.7 0.0
03/04:30pm NNE 13 17 - - - - 10 - - 19.4 1016.7 0.0
03/04:00pm NE 12 17 - - - - 10 - - 19.9 1016.7 0.0
03/03:30pm NNE 14 19 - - - - 10 - - 20.1 1016.7 0.0
03/03:00pm NE 14 19 - - - - 10 - - 20.6 1016.7 0.0
03/02:30pm NE 11 17 - - - - 10 - - 21.1 1016.8 0.0
03/02:00pm NE 10 14 - - - - 10 - - 21.8 1017.3 0.0
03/01:30pm NNE 9 13 - - - - 10 - - 21.8 1017.6 0.0
03/01:00pm N 8 11 - - - - 10 - - 22.1 1018.1 0.0
03/12:30pm N 9 15 - - - - 10 - - 21.1 1018.6 0.0
03/12:00pm N 10 14 - - - - 10 - - 21.5 1019.1 0.0
03/11:30am N 11 17 - - - - 10 - - 21.0 1019.8 0.0
03/11:00am N 9 15 - - - - 10 - - 20.5 1020.5 0.0
03/10:30am N 7 11 - - - - 10 - - 20.2 1021.0 0.0
03/10:00am NNW 7 10 - - - - 10 - - 19.3 1021.6 0.0
03/09:30am NW 8 10 - - - - 10 - - 18.1 1022.0 0.0
03/09:00am NW 8 10 - - - - 10 - - 17.1 1022.0 0.0
03/08:30am WNW 8 10 - - - - 10 - - 15.7 1021.8 0.0
03/08:00am NW 9 10 - - - - 10 - - 14.0 1021.6 0.0
03/07:30am NW 7 9 - - - - 10 - - 12.9 1021.9 0.0
03/07:00am NW 8 8 - - - - 10 - - 10.9 1022.0 0.0
03/06:30am NW 5 6 - - - - 10 - - 8.6 1021.9 0.0
03/06:00am NW 4 5 - - - - 10 - - 8.3 1021.7 0.0
03/05:30am NW 4 5 - - - - 10 - - 8.7 1021.5 0.0
03/05:24am NW 4 5 - - - - 10 - - 9.0 1021.4 0.0
03/05:00am NW 4 4 - - - - 4 - - 8.6 1021.3 0.0
03/04:59am NW 4 4 - - - - 5 - - 8.6 1021.3 0.0
03/04:30am NW 5 5 - - - - 10 Partly cloudy - 9.0 1021.2 0.0
03/04:00am NW 7 7 - - - - 10 - - 10.4 1021.1 0.0
03/03:30am NW 6 7 - - - - 10 - - 9.8 1021.2 0.0
03/03:00am ENE 4 5 - - - - 10 - - 8.3 1021.3 0.0
03/02:49am E 3 5 - - - - 10 - - 8.4 1021.4 0.0
03/02:30am CALM 0 0 - - - - 2 - - 8.3 1021.7 0.0
03/02:00am CALM 0 0 - - - - 2 - - 8.8 1022.0 0.0
03/01:55am CALM 0 0 - - - - 1 - - 8.6 1022.0 0.0
03/01:49am CALM 0 0 - - - - 0.9 - - 8.6 1022.0 0.0
03/01:33am CALM 0 0 - - - - 1 - - 8.7 1022.1 0.0
03/01:30am CALM 0 0 - - - - 0.8 - - 8.5 1022.2 0.0
03/01:23am CALM 0 0 - - - - 0.9 - - 8.1 1022.2 0.0
03/01:00am CALM 0 0 - - - - 7 - - 9.1 1022.4 0.0
03/12:46am CALM 0 0 - - - - 5 - - 9.2 1022.6 0.0
03/12:36am CALM 0 0 - - - - 10 - - 9.4 1022.6 0.0
03/12:30am CALM 0 0 - - - - 10 - - 9.1 1022.7 0.0
03/12:00am CALM 0 0 - - - - 1 - - 9.4 1022.9 0.0
 
Date/Time
EST
Wind Sea
Height
m
Swell Vis
km
Cloud Weather Temp
°C
Press
hPa
Rain since
9am
mm
Dir  Spd
kts
Gust
kts
Height
m
Period
s
Dir
02/11:58pm CALM 0 0 - - - - 1 - - 9.1 1022.9 0.0
02/11:52pm CALM 0 0 - - - - 0.9 - - 9.4 1023.0 0.0
02/11:46pm CALM 0 0 - - - - 5 - - 9.5 1023.0 0.0
02/11:39pm CALM 0 0 - - - - 10 - - 9.6 1023.1 0.0
02/11:30pm CALM 0 0 - - - - 7 - - 9.5 1023.1 0.0
02/11:00pm CALM 0 0 - - - - 10 Partly cloudy - 9.8 1023.1 0.0
02/10:50pm CALM 0 0 - - - - 1 Partly cloudy - 10.0 1023.2 0.0
02/10:48pm CALM 0 0 - - - - 0.9 Partly cloudy - 9.9 1023.2 0.0
02/10:45pm CALM 0 0 - - - - 1 Partly cloudy - 9.9 1023.3 0.0
02/10:43pm CALM 0 0 - - - - 0.9 Partly cloudy - 10.1 1023.3 0.0
02/10:30pm CALM 0 0 - - - - 4 Partly cloudy - 10.2 1023.3 0.0
02/10:00pm CALM 0 0 - - - - 5 - - 10.5 1023.5 0.0
02/09:53pm CALM 0 0 - - - - 6 - - 10.0 1023.6 0.0
02/09:36pm CALM 0 0 - - - - 10 - - 10.4 1023.6 0.0
02/09:30pm CALM 0 0 - - - - 10 - - 10.5 1023.6 0.0
02/09:00pm CALM 0 0 - - - - 2 - - 10.7 1023.7 0.0
02/08:52pm CALM 0 0 - - - - 4 - - 10.8 1023.8 0.0
02/08:35pm CALM 0 0 - - - - 10 - - 10.9 1023.9 0.0
02/08:30pm CALM 0 0 - - - - 10 - - 10.9 1023.9 0.0
02/08:17pm CALM 0 0 - - - - 6 - - 11.4 1023.8 0.0
02/08:00pm CALM 0 0 - - - - 10 - - 11.3 1023.8 0.0
02/07:30pm CALM 0 0 - - - - 10 - - 11.6 1023.8 0.0
02/07:00pm CALM 0 0 - - - - 10 - - 12.6 1023.7 0.0
02/06:30pm CALM 0 0 - - - - 10 - - 13.2 1023.5 0.0
02/06:00pm CALM 0 0 - - - - 10 - - 13.1 1023.4 0.0
02/05:30pm CALM 0 0 - - - - 10 - - 14.7 1023.2 0.0
02/05:00pm CALM 0 0 - - - - 10 - - 17.4 1023.1 0.0
02/04:30pm ESE 1 4 - - - - 10 - - 18.2 1022.9 0.0
02/04:00pm ESE 5 6 - - - - 10 - - 18.4 1022.8 0.0
02/03:30pm ESE 5 7 - - - - 10 - - 18.5 1022.8 0.0
02/03:00pm E 6 8 - - - - 10 - - 18.7 1022.6 0.0
02/02:30pm ESE 7 9 - - - - 10 - - 18.8 1022.8 0.0
02/02:00pm ESE 7 8 - - - - 10 - - 18.9 1023.0 0.0
02/01:30pm E 6 8 - - - - 10 - - 18.7 1023.2 0.0
02/01:00pm SE 7 8 - - - - 10 - - 18.2 1023.4 0.0
02/12:30pm SE 7 9 - - - - 10 - - 18.2 1023.8 0.0
02/12:00pm SSE 8 9 - - - - 10 - - 18.2 1024.4 0.0
02/11:30am SSE 8 9 - - - - 10 - - 17.9 1024.9 0.0
02/11:00am SE 7 9 - - - - 10 - - 17.4 1025.3 0.0
02/10:30am SSE 6 8 - - - - 10 - - 17.7 1025.7 0.0
02/10:00am SSE 6 7 - - - - 10 - - 17.1 1026.0 0.0
02/09:30am WSW 2 4 - - - - 10 - - 16.5 1026.1 0.0
02/09:00am CALM 0 0 - - - - 10 - - 14.9 1026.2 -
02/08:30am CALM 0 0 - - - - 10 - - 13.4 1025.9 -
02/08:00am CALM 0 0 - - - - 10 - - 12.5 1025.7 -
02/07:30am CALM 0 3 - - - - 10 - - 9.8 1025.5 -
02/07:19am CALM 0 0 - - - - 10 - - 8.8 1025.4 -
02/07:00am SW 4 5 - - - - 5 - - 7.7 1025.3 -
02/06:44am WSW 5 6 - - - - 10 - - 7.2 1025.1 -
02/06:30am CALM 0 0 - - - - 3 - - 7.6 1024.8 -
02/06:24am CALM 0 0 - - - - 5 - - 7.3 1024.8 -
02/06:00am W 3 4 - - - - 10 - - 7.3 1024.6 -
02/05:30am WSW 1 4 - - - - 10 - - 8.0 1024.4 -
02/05:15am CALM 0 0 - - - - 7 - - 7.7 1024.3 -
02/05:00am WSW 1 4 - - - - 4 - - 7.5 1024.2 -
02/04:56am WSW 3 6 - - - - 6 - - 7.5 1024.1 -
02/04:30am WSW 3 5 - - - - 10 - - 8.0 1024.1 -
02/04:06am W 3 6 - - - - 10 - - 7.8 1024.1 -
02/04:00am W 3 5 - - - - 10 - - 8.1 1024.1 -
02/03:37am CALM 0 0 - - - - 1 - - 8.2 1024.1 -
02/03:30am CALM 0 0 - - - - 0.7 - - 7.9 1024.1 -
02/03:26am CALM 0 0 - - - - 0.9 - - 8.2 1024.2 -
02/03:16am W 1 4 - - - - 6 - - 8.2 1024.3 -
02/03:08am WSW 1 4 - - - - 10 - - 8.6 1024.4 -
02/03:00am CALM 0 0 - - - - 10 - - 8.6 1024.4 0.0
02/02:52am WSW 3 5 - - - - 1 - - 9.4 1024.5 -
02/02:50am WSW 4 6 - - - - 0.9 - - 9.4 1024.5 -
02/02:30am CALM 0 0 - - - - 4 - - 9.0 1024.7 -
02/02:23am CALM 0 0 - - - - 6 - - 8.8 1024.6 -
02/02:09am CALM 0 0 - - - - 10 - - 9.0 1024.4 -
02/02:00am CALM 0 3 - - - - 8 - - 9.2 1024.4 -
02/01:41am CALM 0 0 - - - - 5 - - 9.8 1024.5 -
02/01:30am NNW 2 5 - - - - 10 - - 10.2 1024.6 -
02/01:00am NNW 6 6 - - - - 10 - - 12.0 1024.9 -
02/12:30am WNW 5 6 - - - - 10 - - 11.8 1024.9 -
02/12:00am ENE 6 7 - - - - 10 - - 11.9 1024.8 -
 
Date/Time
EST
Wind Sea
Height
m
Swell Vis
km
Cloud Weather Temp
°C
Press
hPa
Rain since
9am
mm
Dir  Spd
kts
Gust
kts
Height
m
Period
s
Dir
01/11:30pm ENE 5 5 - - - - 10 - - 11.4 1025.0 -
01/11:00pm CALM 0 0 - - - - 10 Partly cloudy - 11.5 1025.2 -
01/10:30pm CALM 0 3 - - - - 10 Cloudy - 11.3 1025.5 -
01/10:00pm ENE 2 4 - - - - 10 Partly cloudy - 11.3 1025.5 -
01/09:30pm CALM 0 0 - - - - 10 Partly cloudy - 11.5 1025.5 -
01/09:00pm E 3 4 - - - - 10 Mostly clear - 11.5 1025.6 0.0
01/08:30pm E 2 5 - - - - 10 Partly cloudy - 11.3 1025.4 -
01/08:00pm CALM 0 0 - - - - 10 Partly cloudy - 11.6 1025.1 -
01/07:30pm CALM 0 0 - - - - 10 - - 12.0 1025.2 -
01/07:00pm CALM 0 0 - - - - 10 Partly cloudy - 12.9 1025.0 -
01/06:30pm CALM 0 0 - - - - 10 Partly cloudy - 12.8 1024.7 -
01/06:00pm CALM 0 0 - - - - 10 Partly cloudy - 13.1 1024.3 -
01/05:30pm CALM 0 0 - - - - 10 - - 14.7 1024.0 -
01/05:00pm E 3 6 - - - - 10 - - 17.0 1023.9 -
01/04:30pm E 5 7 - - - - 10 - - 17.9 1023.7 -

Other formats

Comma delimited format used in spreadsheet applications
http://www.bom.gov.au/fwo/IDN60701/IDN60701.95729.axf

JavaScript Object Notation format (JSON) in row-major order
http://www.bom.gov.au/fwo/IDN60701/IDN60701.95729.json

Data quality

Most of these data are generated automatically and are frequently updated. Quality checks on data are not normally performed. It is possible for incorrect values to appear. Refer to information at About Latest Weather Observations and please check the disclaimer before using these data.